Time;durP1;ratioP1;P1;durP2;ratioP2;P2;SDS_P1;SDS_P2;PMS_P1;PMS_P2;Temp;Humidity;BMP_temperature;BMP_pressure;BME280_temperature;BME280_humidity;BME280_pressure;Samples;Min_cycle;Max_cycle;Signal;HPM_P1;HPM_P2
2022/06/28 00:00:32;;;;;;;9.68;7.13;;;615.30;2432.00;;;;;;5071517;28;20454;-77
2022/06/28 00:02:58;;;;;;;17.23;6.43;;;640.60;2432.00;;;;;;5093359;28;20024;-78
2022/06/28 00:05:23;;;;;;;12.88;6.55;;;615.20;2432.00;;;;;;5093111;28;20024;-82
2022/06/28 00:07:49;;;;;;;11.00;6.55;;;615.20;2432.00;;;;;;5093171;28;20380;-81
2022/06/28 00:10:16;;;;;;;18.90;6.88;;;615.20;2432.00;;;;;;5093214;28;20024;-77
2022/06/28 00:12:42;;;;;;;10.00;6.47;;;615.20;2432.00;;;;;;5092829;28;20042;-82
2022/06/28 00:17:55;;;;;;;14.32;7.65;;;615.20;2432.00;;;;;;5091249;28;20027;-82
2022/06/28 00:20:21;;;;;;;18.15;7.07;;;615.20;2432.00;;;;;;5072670;28;20422;-83
2022/06/28 00:22:47;;;;;;;14.52;8.05;;;615.10;2432.00;;;;;;5078126;28;20063;-78
2022/06/28 00:25:13;;;;;;;16.90;7.28;;;615.10;2432.00;;;;;;5087248;28;20020;-82
2022/06/28 00:27:40;;;;;;;14.88;6.93;;;615.20;2432.00;;;;;;5074706;28;20028;-77
2022/06/28 00:30:06;;;;;;;12.32;7.40;;;615.10;2432.00;;;;;;5092782;28;20381;-83
2022/06/28 00:32:32;;;;;;;9.02;6.28;;;615.20;2432.00;;;;;;5093022;28;20043;-80
2022/06/28 00:34:59;;;;;;;13.02;6.65;;;615.30;2432.00;;;;;;5092421;28;20107;-77
2022/06/28 00:37:26;;;;;;;17.27;6.93;;;640.00;2432.00;;;;;;5092992;28;20109;-83
2022/06/28 00:39:51;;;;;;;14.02;7.95;;;615.30;2432.00;;;;;;5073892;28;20058;-81
2022/06/28 00:42:18;;;;;;;14.18;7.57;;;615.20;2432.00;;;;;;5079437;28;20048;-81
2022/06/28 00:44:43;;;;;;;9.70;6.55;;;615.10;2432.00;;;;;;5092183;28;20169;-82
2022/06/28 00:47:09;;;;;;;10.20;6.88;;;615.00;2432.00;;;;;;5074562;28;20073;-82
2022/06/28 00:49:40;;;;;;;12.07;7.63;;;615.00;2432.00;;;;;;5102104;28;20016;-83
2022/06/28 00:52:10;;;;;;;18.08;7.70;;;615.00;2432.00;;;;;;5077805;28;20068;-78
2022/06/28 00:54:37;;;;;;;10.82;7.22;;;614.90;2432.00;;;;;;5070068;28;20021;-79
2022/06/28 00:57:04;;;;;;;15.40;7.63;;;614.90;2432.00;;;;;;5070978;28;20128;-81
2022/06/28 00:59:30;;;;;;;12.85;7.28;;;614.90;2432.00;;;;;;5089903;28;20083;-77
2022/06/28 01:01:59;;;;;;;12.98;8.10;;;614.90;2432.00;;;;;;5092353;28;20043;-80
2022/06/28 01:04:26;;;;;;;11.43;7.53;;;614.80;2432.00;;;;;;5074257;28;20436;-81
2022/06/28 01:06:53;;;;;;;14.68;7.47;;;614.80;2432.00;;;;;;5092428;28;20036;-77
2022/06/28 01:09:19;;;;;;;10.45;6.97;;;614.90;2432.00;;;;;;5074112;28;20085;-79
2022/06/28 01:11:45;;;;;;;14.20;7.30;;;614.90;2432.00;;;;;;5092360;28;20021;-81
2022/06/28 01:14:10;;;;;;;10.60;6.72;;;614.90;2432.00;;;;;;5106753;28;20040;-82
2022/06/28 01:16:37;;;;;;;13.50;7.10;;;614.90;2432.00;;;;;;5072819;28;20048;-78
2022/06/28 01:19:05;;;;;;;15.25;8.45;;;614.80;2432.00;;;;;;5092542;28;20090;-77
2022/06/28 01:21:34;;;;;;;8.38;7.05;;;614.80;2432.00;;;;;;5074173;28;20036;-77
2022/06/28 01:23:59;;;;;;;12.57;7.35;;;614.70;2432.00;;;;;;5074214;28;20561;-77
2022/06/28 01:26:25;;;;;;;10.80;6.82;;;614.70;2432.00;;;;;;5092498;28;20106;-82
2022/06/28 01:28:52;;;;;;;13.55;7.95;;;614.60;2432.00;;;;;;5092249;28;20020;-80
2022/06/28 01:31:19;;;;;;;11.85;7.95;;;614.60;2432.00;;;;;;5067124;28;20028;-77
2022/06/28 01:33:46;;;;;;;12.18;7.22;;;614.70;2432.00;;;;;;5070983;28;20024;-83
2022/06/28 01:36:12;;;;;;;12.60;8.50;;;614.80;2432.00;;;;;;5084251;28;20039;-83
2022/06/28 01:38:39;;;;;;;21.98;8.10;;;614.80;2432.00;;;;;;5083499;28;20024;-82
2022/06/28 01:41:07;;;;;;;11.45;8.00;;;614.80;2432.00;;;;;;5074017;28;20028;-77
2022/06/28 01:43:35;;;;;;;11.52;7.95;;;614.90;2432.00;;;;;;5073724;28;20044;-78
2022/06/28 01:46:06;;;;;;;12.82;7.68;;;614.90;2432.00;;;;;;5091902;28;20024;-77
2022/06/28 01:48:32;;;;;;;14.13;8.07;;;615.10;2432.00;;;;;;5091978;28;20030;-82
2022/06/28 01:50:59;;;;;;;12.07;8.32;;;615.10;2432.00;;;;;;5074259;28;20012;-77
2022/06/28 01:53:24;;;;;;;14.27;8.75;;;615.10;2432.00;;;;;;5073541;28;20020;-80
2022/06/28 01:55:50;;;;;;;11.20;7.70;;;615.10;2432.00;;;;;;5091893;28;20034;-82
2022/06/28 01:58:16;;;;;;;12.65;7.78;;;615.00;2432.00;;;;;;5083735;28;20111;-82
2022/06/28 02:00:43;;;;;;;10.07;7.63;;;614.90;2432.00;;;;;;5065665;28;20035;-78
2022/06/28 02:03:09;;;;;;;10.00;7.75;;;614.90;2432.00;;;;;;5073748;28;20052;-80
2022/06/28 02:05:35;;;;;;;13.05;8.80;;;614.80;2432.00;;;;;;5092064;28;20063;-77
2022/06/28 02:08:00;;;;;;;11.32;8.18;;;614.70;2432.00;;;;;;5091632;28;20044;-77
2022/06/28 02:10:26;;;;;;;12.00;8.70;;;614.80;2432.00;;;;;;5091847;28;20385;-78
2022/06/28 02:12:52;;;;;;;10.95;7.32;;;614.80;2432.00;;;;;;5077154;28;20386;-77
2022/06/28 02:15:18;;;;;;;11.95;8.10;;;614.80;2432.00;;;;;;5095265;28;20103;-78
2022/06/28 02:17:45;;;;;;;14.88;8.80;;;614.80;2432.00;;;;;;5076889;28;20056;-81
2022/06/28 02:20:12;;;;;;;11.68;7.55;;;614.60;2432.00;;;;;;5071255;28;20024;-78
2022/06/28 02:22:38;;;;;;;11.18;7.80;;;614.60;2432.00;;;;;;5075466;28;20029;-77
2022/06/28 02:25:04;;;;;;;13.15;8.43;;;614.60;2432.00;;;;;;5072090;28;20016;-81
2022/06/28 02:27:30;;;;;;;11.57;8.40;;;614.60;2432.00;;;;;;5070776;28;20082;-82
2022/06/28 02:29:56;;;;;;;11.38;7.78;;;614.40;2432.00;;;;;;5091680;28;20020;-80
2022/06/28 02:32:22;;;;;;;11.85;8.38;;;614.50;2432.00;;;;;;5086360;28;20051;-81
2022/06/28 02:40:22;;;;;;;15.48;8.30;;;589.70;2432.00;;;;;;5095307;28;20034;-82
2022/06/28 02:42:52;;;;;;;13.88;8.65;;;589.70;2432.00;;;;;;5076288;28;20406;-81
2022/06/28 02:45:20;;;;;;;11.75;8.68;;;589.70;2432.00;;;;;;5076102;28;20071;-81
2022/06/28 02:47:46;;;;;;;12.82;8.80;;;614.40;2432.00;;;;;;5094990;28;20542;-82
2022/06/28 02:50:12;;;;;;;17.05;9.23;;;589.70;2432.00;;;;;;5094531;28;20054;-81
2022/06/28 02:52:39;;;;;;;14.93;9.02;;;589.70;2432.00;;;;;;5095092;28;20046;-80
2022/06/28 02:55:06;;;;;;;11.68;8.25;;;614.40;2432.00;;;;;;5094398;28;20451;-81
2022/06/28 02:57:36;;;;;;;10.52;8.35;;;589.70;2432.00;;;;;;5094774;28;20035;-82
2022/06/28 03:00:07;;;;;;;17.83;9.15;;;589.60;2432.00;;;;;;5075700;28;20063;-77
2022/06/28 03:02:35;;;;;;;15.02;8.43;;;589.70;2432.00;;;;;;5076325;28;20028;-77
2022/06/28 03:05:06;;;;;;;12.40;9.57;;;589.70;2432.00;;;;;;5094361;28;20100;-80
2022/06/28 03:07:32;;;;;;;13.48;7.72;;;589.70;2432.00;;;;;;5076000;28;20609;-80
2022/06/28 03:09:58;;;;;;;11.43;8.70;;;589.60;2432.00;;;;;;5076420;28;20020;-78
2022/06/28 03:12:24;;;;;;;12.27;8.73;;;589.50;2432.00;;;;;;5075853;28;20035;-77
2022/06/28 03:14:49;;;;;;;14.13;9.07;;;589.40;2432.00;;;;;;5074534;28;20119;-77
2022/06/28 03:17:15;;;;;;;17.02;9.25;;;589.50;2432.00;;;;;;5072232;28;20056;-79
2022/06/28 03:19:41;;;;;;;13.82;8.88;;;589.40;2432.00;;;;;;5085569;28;20020;-80
2022/06/28 03:22:07;;;;;;;13.18;9.30;;;589.50;2432.00;;;;;;5093656;28;20024;-77
2022/06/28 03:24:33;;;;;;;15.20;9.35;;;589.60;2432.00;;;;;;5094017;28;20102;-77
2022/06/28 03:26:59;;;;;;;15.57;9.38;;;589.30;2432.00;;;;;;5075825;28;20046;-78
2022/06/28 03:29:24;;;;;;;10.38;8.30;;;589.40;2432.00;;;;;;5075613;28;20500;-77
2022/06/28 03:31:50;;;;;;;17.15;9.82;;;589.50;2432.00;;;;;;5075664;28;20028;-77
2022/06/28 03:34:17;;;;;;;16.90;10.02;;;589.40;2432.00;;;;;;5074886;28;20051;-80
2022/06/28 03:36:43;;;;;;;15.88;10.05;;;589.40;2432.00;;;;;;5075528;28;20036;-77
2022/06/28 03:39:09;;;;;;;12.27;9.93;;;589.30;2432.00;;;;;;5093663;28;20066;-77
2022/06/28 03:41:34;;;;;;;12.02;9.68;;;589.30;2432.00;;;;;;5093704;28;20028;-79
2022/06/28 03:44:00;;;;;;;16.40;10.07;;;589.50;2432.00;;;;;;5074744;28;20040;-77
2022/06/28 03:46:26;;;;;;;14.90;10.40;;;589.60;2432.00;;;;;;5075373;28;20032;-80
2022/06/28 03:48:52;;;;;;;13.52;9.68;;;589.50;2432.00;;;;;;5093198;28;20027;-77
2022/06/28 03:51:17;;;;;;;13.45;10.05;;;589.60;2432.00;;;;;;5086878;28;20021;-76
2022/06/28 03:53:43;;;;;;;18.13;9.65;;;589.70;2432.00;;;;;;5074335;28;20052;-82
2022/06/28 03:56:10;;;;;;;16.08;11.60;;;589.70;2432.00;;;;;;5093009;28;20103;-77
2022/06/28 03:58:36;;;;;;;12.82;9.32;;;589.70;2432.00;;;;;;5075765;28;20028;-76
2022/06/28 04:01:03;;;;;;;14.13;10.07;;;589.70;2432.00;;;;;;5093220;28;20027;-76
2022/06/28 04:03:29;;;;;;;15.85;10.00;;;589.70;2432.00;;;;;;5093387;28;20024;-82
2022/06/28 04:05:55;;;;;;;11.95;10.75;;;589.70;2432.00;;;;;;5092980;28;20035;-81
2022/06/28 04:08:21;;;;;;;14.30;9.82;;;589.70;2432.00;;;;;;5075300;28;20385;-80
2022/06/28 04:10:48;;;;;;;16.58;10.45;;;589.70;2432.00;;;;;;5093159;28;20060;-76
2022/06/28 04:13:14;;;;;;;14.80;10.52;;;614.50;2432.00;;;;;;5093059;28;20024;-80
2022/06/28 04:15:40;;;;;;;14.25;11.43;;;614.50;2432.00;;;;;;5092890;28;20028;-77
2022/06/28 04:18:06;;;;;;;19.98;11.85;;;614.50;2432.00;;;;;;5093067;28;20024;-77
2022/06/28 04:20:33;;;;;;;18.00;11.65;;;614.50;2432.00;;;;;;5092591;28;20445;-77
2022/06/28 04:22:59;;;;;;;15.98;11.55;;;614.60;2432.00;;;;;;5074267;28;20024;-77
2022/06/28 04:25:25;;;;;;;13.90;11.18;;;614.60;2432.00;;;;;;5073807;28;20571;-78
2022/06/28 04:27:56;;;;;;;18.08;11.23;;;614.70;2432.00;;;;;;5074276;28;20126;-77
2022/06/28 04:30:25;;;;;;;19.20;13.07;;;614.70;2432.00;;;;;;5074315;28;20016;-77
2022/06/28 04:32:50;;;;;;;14.73;11.80;;;614.80;2432.00;;;;;;5061264;28;20054;-77
2022/06/28 04:35:16;;;;;;;15.70;12.23;;;614.80;2432.00;;;;;;5086695;28;20051;-78
2022/06/28 04:37:42;;;;;;;17.60;11.70;;;614.90;2432.00;;;;;;5092166;28;20024;-78
2022/06/28 04:40:08;;;;;;;16.23;11.32;;;614.90;2432.00;;;;;;5073087;28;20024;-78
2022/06/28 04:42:36;;;;;;;15.35;11.25;;;614.90;2432.00;;;;;;5050337;28;20033;-78
2022/06/28 04:45:02;;;;;;;15.90;11.52;;;615.10;2432.00;;;;;;5056459;28;20040;-76
2022/06/28 04:47:27;;;;;;;17.27;12.48;;;615.10;2432.00;;;;;;5074148;28;20020;-78
2022/06/28 04:49:53;;;;;;;17.88;11.82;;;615.20;2432.00;;;;;;5073755;28;20474;-78
2022/06/28 04:52:19;;;;;;;16.35;11.52;;;615.20;2432.00;;;;;;5084081;28;20024;-78
2022/06/28 04:54:45;;;;;;;18.58;11.88;;;615.30;2432.00;;;;;;5074009;28;20536;-78
2022/06/28 04:57:10;;;;;;;17.73;11.38;;;615.30;2432.00;;;;;;5074031;28;20414;-78
2022/06/28 04:59:36;;;;;;;13.65;11.18;;;640.00;2432.00;;;;;;5073623;28;20111;-78
2022/06/28 05:02:02;;;;;;;12.85;11.10;;;640.20;2432.00;;;;;;5061067;28;20036;-80
2022/06/28 05:04:27;;;;;;;13.27;11.88;;;640.20;2432.00;;;;;;5067876;28;20569;-81
2022/06/28 05:06:53;;;;;;;20.15;11.35;;;640.30;2432.00;;;;;;5087579;28;20020;-78
2022/06/28 05:09:19;;;;;;;22.25;12.23;;;640.40;2432.00;;;;;;5074069;28;20028;-78
2022/06/28 05:11:44;;;;;;;21.42;11.90;;;640.50;2432.00;;;;;;5092286;28;20095;-78
2022/06/28 05:14:10;;;;;;;18.05;11.75;;;640.60;2432.00;;;;;;5056332;28;20033;-79
2022/06/28 05:16:36;;;;;;;20.13;11.48;;;640.70;2432.00;;;;;;5071889;28;20486;-78
2022/06/28 05:19:02;;;;;;;16.48;13.10;;;640.90;2432.00;;;;;;5056628;28;20013;-79
2022/06/28 05:21:27;;;;;;;21.45;12.85;;;640.90;2432.00;;;;;;5070576;28;20129;-81
2022/06/28 05:23:53;;;;;;;20.42;12.23;;;665.70;2432.00;;;;;;5090687;28;20081;-78
2022/06/28 05:26:19;;;;;;;15.50;11.27;;;665.70;2432.00;;;;;;5057803;28;20493;-78
2022/06/28 05:28:45;;;;;;;15.27;11.85;;;665.90;2432.00;;;;;;5072931;28;20028;-78
2022/06/28 05:31:11;;;;;;;21.73;12.82;;;666.00;2432.00;;;;;;5053924;28;20115;-82
2022/06/28 05:33:36;;;;;;;20.98;12.02;;;666.10;2432.00;;;;;;5072590;28;20032;-79
2022/06/28 05:36:02;;;;;;;14.80;12.52;;;666.20;2432.00;;;;;;5073700;28;20074;-79
2022/06/28 05:38:29;;;;;;;23.17;12.10;;;666.30;2432.00;;;;;;5091729;28;20035;-78
2022/06/28 05:40:55;;;;;;;14.32;11.75;;;666.30;2432.00;;;;;;5073593;28;20480;-78
2022/06/28 05:43:21;;;;;;;15.55;12.38;;;666.40;2432.00;;;;;;5094280;28;20132;-78
2022/06/28 05:45:47;;;;;;;12.45;11.25;;;666.50;2432.00;;;;;;5096438;28;20028;-79
2022/06/28 05:48:12;;;;;;;16.08;11.55;;;691.20;2432.00;;;;;;5077012;28;20060;-78
2022/06/28 05:50:38;;;;;;;18.00;11.63;;;691.30;2432.00;;;;;;5110238;28;20080;-79
2022/06/28 05:53:04;;;;;;;20.42;10.93;;;691.40;2432.00;;;;;;5077434;28;20016;-79
2022/06/28 05:55:31;;;;;;;17.45;12.20;;;691.50;2432.00;;;;;;5077324;28;20024;-79
2022/06/28 05:57:56;;;;;;;18.50;11.02;;;691.60;2432.00;;;;;;5095377;28;20035;-79
2022/06/28 06:00:22;;;;;;;19.90;11.90;;;691.70;2432.00;;;;;;5077277;28;20032;-81
2022/06/28 06:02:48;;;;;;;14.57;10.90;;;691.70;2432.00;;;;;;5076892;28;20055;-79
2022/06/28 06:05:14;;;;;;;14.93;10.20;;;691.80;2432.00;;;;;;5077265;28;20172;-79
2022/06/28 06:07:39;;;;;;;14.98;10.75;;;691.90;2432.00;;;;;;5076750;28;20024;-79
2022/06/28 06:10:06;;;;;;;26.83;11.07;;;692.00;2432.00;;;;;;5077099;28;20017;-78
2022/06/28 06:12:32;;;;;;;15.35;10.10;;;692.10;2432.00;;;;;;5076967;28;20028;-79
2022/06/28 06:14:58;;;;;;;18.50;10.52;;;692.10;2432.00;;;;;;5065617;28;20764;-79
2022/06/28 06:17:24;;;;;;;13.93;10.80;;;716.80;2432.00;;;;;;5095056;28;20112;-84
2022/06/28 06:19:50;;;;;;;14.50;9.50;;;716.90;2432.00;;;;;;5075815;28;20024;-78
2022/06/28 06:22:16;;;;;;;10.45;9.23;;;717.00;2432.00;;;;;;5095340;28;20051;-79
2022/06/28 06:24:42;;;;;;;14.18;9.23;;;717.10;2432.00;;;;;;5076568;28;20073;-80
2022/06/28 06:27:08;;;;;;;10.50;7.88;;;717.20;2432.00;;;;;;5095119;28;20102;-78
2022/06/28 06:29:34;;;;;;;13.02;9.77;;;717.30;2432.00;;;;;;5076391;28;20036;-78
2022/06/28 06:31:59;;;;;;;15.27;8.15;;;717.40;2406.40;;;;;;5076556;28;20016;-78
2022/06/28 06:34:25;;;;;;;12.02;8.95;;;717.50;2355.20;;;;;;5076330;28;20034;-77
2022/06/28 06:36:51;;;;;;;12.95;9.02;;;717.50;2355.20;;;;;;5094265;28;20032;-78
2022/06/28 06:39:17;;;;;;;10.77;7.82;;;717.70;2355.20;;;;;;5076548;28;20486;-79
2022/06/28 06:41:43;;;;;;;13.57;8.30;;;742.40;2227.20;;;;;;5076192;28;20103;-79
2022/06/28 06:44:09;;;;;;;8.00;7.10;;;742.40;2355.20;;;;;;5094403;28;20040;-78
2022/06/28 06:46:36;;;;;;;8.25;6.70;;;742.50;2278.40;;;;;;5094293;28;20107;-78
2022/06/28 06:49:02;;;;;;;9.60;7.47;;;742.50;2227.20;;;;;;5078210;28;20489;-78
2022/06/28 06:51:30;;;;;;;9.35;7.53;;;742.60;2150.40;;;;;;5088244;28;20028;-78
2022/06/28 06:53:56;;;;;;;12.48;7.25;;;742.80;2022.40;;;;;;5076060;28;20028;-79
2022/06/28 06:56:22;;;;;;;9.38;6.95;;;742.80;1996.80;;;;;;5075444;28;20105;-79
2022/06/28 06:58:48;;;;;;;8.00;6.40;;;742.90;1971.20;;;;;;5094397;28;20031;-79
2022/06/28 07:01:14;;;;;;;7.70;6.97;;;742.90;2073.60;;;;;;5075580;28;20024;-78
2022/06/28 07:03:44;;;;;;;8.43;6.15;;;743.00;2022.40;;;;;;5075859;28;20031;-78
2022/06/28 07:06:12;;;;;;;10.20;5.85;;;743.10;1894.40;;;;;;5076140;28;20020;-78
2022/06/28 07:08:38;;;;;;;9.35;5.63;;;743.20;1920.00;;;;;;5093995;28;20146;-77
2022/06/28 07:11:04;;;;;;;7.22;6.03;;;768.10;1920.00;;;;;;5075845;28;20103;-77
2022/06/28 07:13:30;;;;;;;8.20;6.13;;;768.10;1868.80;;;;;;5075594;28;20040;-78
2022/06/28 07:15:56;;;;;;;12.82;7.10;;;768.20;1817.60;;;;;;5075877;28;20039;-79
2022/06/28 07:18:22;;;;;;;8.40;7.00;;;768.20;1868.80;;;;;;5075561;28;20024;-79
2022/06/28 07:20:47;;;;;;;6.90;5.45;;;768.50;1894.40;;;;;;5075703;28;20127;-79
2022/06/28 07:23:13;;;;;;;10.90;5.65;;;768.60;1792.00;;;;;;5093385;28;20092;-79
2022/06/28 07:25:39;;;;;;;9.57;5.88;;;768.60;1740.80;;;;;;5072274;28;20788;-79
2022/06/28 07:28:08;;;;;;;11.00;6.15;;;768.70;1740.80;;;;;;5087978;28;20541;-79
2022/06/28 07:30:34;;;;;;;9.65;5.38;;;768.80;1766.40;;;;;;5075334;28;20027;-79
2022/06/28 07:32:59;;;;;;;14.48;6.45;;;768.90;1715.20;;;;;;5071560;28;20032;-78
2022/06/28 07:35:25;;;;;;;10.98;5.90;;;793.60;1740.80;;;;;;5074993;28;20042;-78
2022/06/28 07:37:51;;;;;;;9.70;5.65;;;793.70;1792.00;;;;;;5093446;28;20028;-78
2022/06/28 07:40:17;;;;;;;8.73;6.10;;;793.80;1740.80;;;;;;5092514;28;20024;-76
2022/06/28 07:42:43;;;;;;;10.48;5.80;;;793.80;1715.20;;;;;;5074436;28;20047;-79
2022/06/28 07:45:09;;;;;;;12.10;5.10;;;794.00;1715.20;;;;;;5074535;28;20064;-79
2022/06/28 07:47:35;;;;;;;9.40;5.07;;;794.10;1664.00;;;;;;5074341;28;20115;-79
2022/06/28 07:52:44;;;;;;;11.80;4.72;;;794.30;1612.80;;;;;;5081836;28;20051;-78
2022/06/28 07:55:11;;;;;;;6.53;3.65;;;794.50;1587.20;;;;;;5075207;28;20442;-78
2022/06/28 07:57:37;;;;;;;8.00;3.95;;;819.20;1510.40;;;;;;5066171;28;20047;-79
2022/06/28 08:00:05;;;;;;;6.32;3.63;;;819.30;1433.60;;;;;;5065648;28;20016;-79
2022/06/28 08:02:31;;;;;;;7.22;3.75;;;819.30;1408.00;;;;;;5064599;28;20028;-78
2022/06/28 08:04:57;;;;;;;8.68;3.67;;;819.30;1382.40;;;;;;5068088;28;20032;-79
2022/06/28 08:07:22;;;;;;;6.70;3.38;;;819.40;1382.40;;;;;;5078162;28;20073;-78
2022/06/28 08:09:49;;;;;;;7.68;3.53;;;819.50;1356.80;;;;;;5088006;28;20090;-78
2022/06/28 08:12:14;;;;;;;7.07;3.50;;;819.50;1356.80;;;;;;5098468;28;20020;-77
2022/06/28 08:14:41;;;;;;;7.75;4.30;;;819.40;1433.60;;;;;;5092060;28;20031;-76
2022/06/28 08:17:07;;;;;;;7.30;3.80;;;819.40;1459.20;;;;;;5073190;28;20499;-79
2022/06/28 08:19:33;;;;;;;6.65;3.70;;;819.60;1484.80;;;;;;5074258;28;20015;-80
2022/06/28 08:21:59;;;;;;;7.90;4.65;;;819.60;1459.20;;;;;;5101546;28;20020;-81
2022/06/28 08:24:25;;;;;;;7.45;4.97;;;819.70;1510.40;;;;;;5068307;28;20129;-78
2022/06/28 08:26:52;;;;;;;14.50;4.40;;;819.80;1459.20;;;;;;5064067;28;20500;-79
2022/06/28 08:29:20;;;;;;;9.63;5.13;;;819.90;1484.80;;;;;;5083326;28;20405;-78
2022/06/28 08:31:46;;;;;;;10.25;4.65;;;819.90;1484.80;;;;;;5109342;28;20473;-79
2022/06/28 08:34:13;;;;;;;7.72;4.40;;;819.90;1433.60;;;;;;5081222;28;20058;-77
2022/06/28 08:36:39;;;;;;;7.10;4.25;;;820.10;1433.60;;;;;;5092328;28;20117;-78
2022/06/28 08:39:05;;;;;;;7.10;4.40;;;820.00;1484.80;;;;;;5074476;28;20108;-80
2022/06/28 08:41:33;;;;;;;5.85;4.03;;;820.10;1433.60;;;;;;5092081;28;20021;-78
2022/06/28 08:43:59;;;;;;;8.10;4.35;;;820.00;1459.20;;;;;;5092547;28;20051;-84
2022/06/28 08:46:24;;;;;;;9.05;5.10;;;819.90;1484.80;;;;;;5073403;28;20122;-84
2022/06/28 08:48:55;;;;;;;6.07;3.78;;;819.80;1484.80;;;;;;5073848;28;20059;-81
2022/06/28 08:51:22;;;;;;;16.00;3.97;;;819.90;1459.20;;;;;;5073189;28;20035;-81
2022/06/28 08:53:48;;;;;;;8.95;4.25;;;819.80;1433.60;;;;;;5073381;28;20032;-79
2022/06/28 08:56:15;;;;;;;5.05;3.88;;;819.90;1433.60;;;;;;5094295;28;20474;-82
2022/06/28 08:58:42;;;;;;;7.65;3.92;;;820.10;1433.60;;;;;;5087022;28;20461;-81
2022/06/28 09:01:13;;;;;;;9.55;3.78;;;820.10;1433.60;;;;;;5063502;28;20026;-80
2022/06/28 09:03:39;;;;;;;11.73;4.28;;;844.80;1459.20;;;;;;5064577;28;20027;-78
2022/06/28 09:06:06;;;;;;;9.13;3.97;;;844.90;1433.60;;;;;;5063544;28;20029;-78
2022/06/28 09:08:32;;;;;;;6.20;4.18;;;845.00;1408.00;;;;;;5080963;28;20027;-79
2022/06/28 09:10:58;;;;;;;6.32;3.80;;;845.20;1408.00;;;;;;5064793;28;20019;-77
2022/06/28 09:13:24;;;;;;;10.13;4.00;;;845.20;1382.40;;;;;;5080916;28;20020;-83
2022/06/28 09:15:56;;;;;;;7.90;4.38;;;845.30;1408.00;;;;;;5062620;28;20127;-76
2022/06/28 09:18:43;;;;;;;5.90;4.15;;;845.40;1382.40;;;;;;5081700;28;20013;-78
2022/06/28 09:21:11;;;;;;;5.10;3.33;;;845.50;1331.20;;;;;;5069205;28;20163;-82
2022/06/28 09:23:40;;;;;;;8.18;4.38;;;845.60;1331.20;;;;;;5084782;28;20020;-78
2022/06/28 09:26:08;;;;;;;6.10;3.70;;;845.60;1331.20;;;;;;5067604;28;20469;-84
2022/06/28 09:28:38;;;;;;;5.10;4.15;;;845.70;1356.80;;;;;;5067745;28;20028;-78
2022/06/28 09:31:20;;;;;;;5.60;3.53;;;870.40;1280.00;;;;;;5068158;28;20028;-76
2022/06/28 09:33:49;;;;;;;6.22;3.55;;;870.50;1280.00;;;;;;5087829;28;20021;-82
2022/06/28 09:36:18;;;;;;;5.30;3.53;;;870.60;1280.00;;;;;;5077402;28;20047;-79
2022/06/28 09:38:44;;;;;;;7.95;3.63;;;870.70;1280.00;;;;;;5068131;28;20555;-79
2022/06/28 09:41:28;;;;;;;9.05;3.65;;;870.90;1305.60;;;;;;5067623;28;20047;-82
2022/06/28 09:44:03;;;;;;;9.07;3.72;;;871.00;1254.40;;;;;;5069994;28;20115;-81
2022/06/28 09:46:31;;;;;;;7.43;3.50;;;871.10;1280.00;;;;;;5068492;28;20502;-80
2022/06/28 09:49:04;;;;;;;13.93;3.78;;;871.10;1228.80;;;;;;5074273;28;20028;-79
2022/06/28 09:51:32;;;;;;;9.00;4.25;;;871.20;1254.40;;;;;;5095399;28;20020;-81
2022/06/28 09:54:09;;;;;;;8.80;3.90;;;871.30;1228.80;;;;;;5095526;28;20032;-80
2022/06/28 09:56:37;;;;;;;10.68;3.60;;;871.30;1177.60;;;;;;5095820;28;20035;-82
2022/06/28 09:59:04;;;;;;;9.85;3.65;;;871.30;1203.20;;;;;;5108553;28;20016;-81
2022/06/28 10:01:30;;;;;;;15.02;3.70;;;871.30;1177.60;;;;;;5095966;28;20024;-81
2022/06/28 10:03:58;;;;;;;6.72;3.78;;;896.20;1228.80;;;;;;5095537;28;20020;-80
2022/06/28 10:06:24;;;;;;;6.97;3.42;;;896.40;1203.20;;;;;;5076947;28;20027;-80
2022/06/28 10:08:51;;;;;;;9.65;3.97;;;896.50;1152.00;;;;;;5077167;28;20024;-79
2022/06/28 10:11:17;;;;;;;9.32;3.53;;;896.90;1152.00;;;;;;5076937;28;20106;-82
2022/06/28 10:16:46;;;;;;;8.68;3.45;;;921.70;1177.60;;;;;;5095677;28;20455;-83
2022/06/28 10:19:16;;;;;;;7.22;3.25;;;921.80;1126.40;;;;;;5095027;28;20085;-81
2022/06/28 10:21:52;;;;;;;6.28;4.03;;;921.80;1126.40;;;;;;5077033;28;20469;-79
2022/06/28 10:24:20;;;;;;;7.60;3.45;;;922.00;1126.40;;;;;;5077035;28;20028;-81
2022/06/28 10:27:12;;;;;;;8.35;3.20;;;922.00;1126.40;;;;;;5076927;28;20028;-79
2022/06/28 10:30:00;;;;;;;5.22;3.55;;;922.10;1100.80;;;;;;5094820;28;20024;-80
2022/06/28 10:32:39;;;;;;;8.50;3.47;;;922.50;1100.80;;;;;;5074377;28;20020;-78
2022/06/28 10:35:05;;;;;;;13.25;3.70;;;922.40;1100.80;;;;;;5090852;28;20032;-78
2022/06/28 10:37:31;;;;;;;10.27;3.33;;;922.10;1075.20;;;;;;5067828;28;20123;-80
2022/06/28 10:40:36;;;;;;;12.52;4.05;;;922.00;1075.20;;;;;;5067631;28;20111;-80
2022/06/28 10:43:01;;;;;;;7.65;3.30;;;922.00;1100.80;;;;;;4999548;28;20041;-78
2022/06/28 10:46:06;;;;;;;7.25;3.55;;;922.00;1075.20;;;;;;5023274;28;20108;-78
2022/06/28 10:48:51;;;;;;;7.47;3.85;;;896.90;1100.80;;;;;;5022536;28;20026;-79
2022/06/28 10:51:19;;;;;;;11.27;4.25;;;896.50;1126.40;;;;;;5012472;28;20097;-82
2022/06/28 10:54:06;;;;;;;8.10;3.50;;;896.60;1100.80;;;;;;5003651;28;20183;-80
2022/06/28 10:56:47;;;;;;;19.38;3.95;;;896.70;1100.80;;;;;;5022888;28;20033;-81
2022/06/28 10:59:13;;;;;;;8.90;3.20;;;896.70;1075.20;;;;;;5006559;28;20014;-78
2022/06/28 11:01:39;;;;;;;7.97;3.22;;;896.60;1075.20;;;;;;5021110;28;20030;-79
2022/06/28 11:04:19;;;;;;;8.50;3.45;;;896.90;1049.60;;;;;;5021270;28;20052;-78
2022/06/28 11:06:53;;;;;;;6.38;3.35;;;896.80;1049.60;;;;;;5019085;28;20056;-81
2022/06/28 11:09:37;;;;;;;5.05;3.42;;;896.60;1024.00;;;;;;5017830;28;20030;-78
2022/06/28 11:12:17;;;;;;;6.05;3.00;;;896.50;1049.60;;;;;;5017941;28;20112;-78
2022/06/28 11:14:54;;;;;;;7.13;3.65;;;896.30;1049.60;;;;;;4999276;28;20117;-82
2022/06/28 11:17:35;;;;;;;8.05;3.90;;;896.20;1075.20;;;;;;5012095;28;20038;-79
2022/06/28 11:20:02;;;;;;;12.63;3.33;;;896.30;1100.80;;;;;;5031540;28;20035;-79
2022/06/28 11:22:32;;;;;;;7.40;3.63;;;896.30;1075.20;;;;;;5093819;28;20154;-79
2022/06/28 11:25:01;;;;;;;4.45;3.17;;;896.30;1075.20;;;;;;5075199;28;20032;-78
2022/06/28 11:27:27;;;;;;;9.48;3.72;;;896.50;1049.60;;;;;;5075909;28;20016;-81
2022/06/28 11:30:02;;;;;;;8.77;3.67;;;896.50;1075.20;;;;;;5074845;28;20028;-78
2022/06/28 11:32:32;;;;;;;6.88;3.50;;;896.70;1024.00;;;;;;5072125;28;20103;-82
2022/06/28 11:35:13;;;;;;;5.30;3.55;;;896.70;1049.60;;;;;;5065921;28;20024;-79
2022/06/28 11:38:06;;;;;;;6.00;3.65;;;896.80;1075.20;;;;;;5083740;28;20031;-81
2022/06/28 11:40:47;;;;;;;4.43;3.08;;;921.70;1126.40;;;;;;5062787;28;20031;-78
2022/06/28 11:43:18;;;;;;;6.03;3.40;;;921.90;1075.20;;;;;;5064875;28;20470;-77
2022/06/28 11:45:46;;;;;;;5.22;3.15;;;921.70;1075.20;;;;;;5081951;28;20072;-80
2022/06/28 11:48:14;;;;;;;5.07;3.20;;;921.70;1126.40;;;;;;5074520;28;20031;-78
2022/06/28 11:50:45;;;;;;;7.75;3.42;;;896.90;1075.20;;;;;;5074422;28;20111;-78
2022/06/28 11:53:12;;;;;;;6.05;3.75;;;896.60;1100.80;;;;;;5092857;28;20030;-77
2022/06/28 11:55:43;;;;;;;7.15;3.03;;;896.50;1075.20;;;;;;5073357;28;20389;-78
2022/06/28 11:58:17;;;;;;;7.60;3.95;;;896.40;1100.80;;;;;;5074358;28;20031;-80
2022/06/28 12:01:02;;;;;;;7.18;3.95;;;896.30;1152.00;;;;;;5082857;28;20432;-80
2022/06/28 12:03:28;;;;;;;5.20;3.95;;;896.40;1100.80;;;;;;5068904;28;20702;-76
2022/06/28 12:05:58;;;;;;;10.30;3.42;;;896.10;1075.20;;;;;;5065715;28;20109;-78
2022/06/28 12:08:50;;;;;;;4.72;3.40;;;896.00;1100.80;;;;;;5083462;28;20107;-83
2022/06/28 12:11:37;;;;;;;6.25;3.60;;;896.00;1152.00;;;;;;5065135;28;20485;-77
2022/06/28 12:14:02;;;;;;;10.75;3.80;;;871.30;1126.40;;;;;;5087912;28;20435;-78
2022/06/28 12:16:50;;;;;;;9.73;2.95;;;871.30;1126.40;;;;;;5097805;28;20036;-79
2022/06/28 12:19:17;;;;;;;6.65;2.92;;;871.30;1100.80;;;;;;5055813;28;20465;-80
2022/06/28 12:22:01;;;;;;;8.60;4.13;;;871.10;1100.80;;;;;;5080433;28;20039;-80
2022/06/28 12:24:44;;;;;;;8.02;3.15;;;896.00;1100.80;;;;;;5081617;28;20017;-79
2022/06/28 12:27:15;;;;;;;7.38;3.35;;;896.00;1100.80;;;;;;5063226;28;20032;-84
2022/06/28 12:29:42;;;;;;;9.50;3.60;;;896.60;1100.80;;;;;;5063578;28;20089;-77